createdAt,value
2023-03-05T00:01:27.451Z,23.23
2023-03-05T00:03:56.530Z,21.20
2023-03-05T00:06:26.680Z,19.23
2023-03-05T00:08:56.766Z,20.90
2023-03-05T00:11:28.076Z,20.37
2023-03-05T00:13:56.826Z,20.25
2023-03-05T00:16:26.982Z,18.83
2023-03-05T00:18:59.544Z,17.98
2023-03-05T00:21:28.828Z,19.98
2023-03-05T00:23:57.641Z,18.73
2023-03-05T00:26:26.907Z,19.92
2023-03-05T00:28:56.938Z,21.12
2023-03-05T00:31:30.374Z,18.40
2023-03-05T00:34:00.686Z,15.43
2023-03-05T00:36:28.906Z,19.93
2023-03-05T00:38:56.587Z,18.77
2023-03-05T00:41:24.456Z,17.87
2023-03-05T00:43:52.053Z,19.17
2023-03-05T00:46:19.568Z,17.73
2023-03-05T00:48:47.602Z,19.83
2023-03-05T00:51:15.190Z,20.12
2023-03-05T00:53:42.798Z,20.05
2023-03-05T00:56:10.879Z,21.50
2023-03-05T00:58:39.046Z,20.58
2023-03-05T01:01:07.422Z,18.37
2023-03-05T01:03:36.008Z,19.75
2023-03-05T01:06:09.221Z,21.08
2023-03-05T01:08:37.729Z,18.23
2023-03-05T01:11:06.533Z,18.17
2023-03-05T01:13:34.341Z,16.97
2023-03-05T01:16:03.105Z,17.92
2023-03-05T01:18:30.770Z,17.25
2023-03-05T01:20:58.656Z,19.50
2023-03-05T01:23:26.790Z,16.67
2023-03-05T01:25:56.126Z,16.23
2023-03-05T01:28:24.237Z,16.58
2023-03-05T01:30:52.357Z,16.08
2023-03-05T01:33:20.333Z,17.70
2023-03-05T01:35:48.792Z,16.85
2023-03-05T01:38:17.298Z,15.63
2023-03-05T01:40:45.028Z,15.35
2023-03-05T01:43:12.579Z,15.05
2023-03-05T01:46:18.987Z,15.05
2023-03-05T01:49:09.002Z,16.27
2023-03-05T01:51:56.499Z,16.47
2023-03-05T01:54:29.033Z,16.00
2023-03-05T01:56:57.494Z,18.30
2023-03-05T01:59:25.696Z,16.42
2023-03-05T02:01:56.121Z,14.32
2023-03-05T02:04:31.845Z,17.43
2023-03-05T02:06:59.620Z,14.38
2023-03-05T02:09:28.773Z,18.48
2023-03-05T02:11:57.013Z,15.88
2023-03-05T02:14:25.900Z,14.40
2023-03-05T02:16:53.558Z,16.07
2023-03-05T02:19:21.086Z,14.85
2023-03-05T02:21:50.122Z,16.80
2023-03-05T02:24:32.077Z,14.77
2023-03-05T02:27:01.045Z,17.17
2023-03-05T02:29:29.532Z,14.93
2023-03-05T02:31:57.469Z,15.82
2023-03-05T02:34:25.288Z,14.70
2023-03-05T02:36:55.523Z,15.43
2023-03-05T02:39:23.510Z,15.00
2023-03-05T02:41:51.603Z,15.80
2023-03-05T02:44:19.165Z,16.65
2023-03-05T02:46:47.093Z,15.93
2023-03-05T02:49:14.977Z,16.30
2023-03-05T02:51:43.073Z,18.17
2023-03-05T02:54:11.048Z,17.73
2023-03-05T02:56:39.703Z,17.30
2023-03-05T02:59:07.315Z,16.62
2023-03-05T03:01:35.903Z,18.33
2023-03-05T03:04:03.867Z,15.40
2023-03-05T03:06:31.334Z,15.63
2023-03-05T03:08:58.857Z,15.70
2023-03-05T03:11:26.687Z,18.33
2023-03-05T03:13:54.319Z,18.20
2023-03-05T03:16:21.995Z,15.13
2023-03-05T03:18:49.927Z,15.13
2023-03-05T03:21:20.194Z,18.95
2023-03-05T03:23:47.648Z,15.15
2023-03-05T03:26:15.612Z,13.77
2023-03-05T03:28:43.650Z,16.17
2023-03-05T03:31:11.549Z,14.60
2023-03-05T03:33:39.502Z,16.42
2023-03-05T03:36:07.954Z,14.35
2023-03-05T03:38:35.839Z,17.27
2023-03-05T03:41:06.946Z,17.00
2023-03-05T03:43:35.793Z,18.23
2023-03-05T03:46:07.454Z,14.02
2023-03-05T03:48:36.122Z,16.45
2023-03-05T03:51:07.592Z,15.27
2023-03-05T03:53:35.514Z,15.68
2023-03-05T03:56:03.608Z,16.10
2023-03-05T03:58:31.239Z,17.27
2023-03-05T04:00:59.025Z,25.27
2023-03-05T04:03:26.919Z,21.92
2023-03-05T04:05:54.564Z,19.75
2023-03-05T04:08:22.130Z,17.43
2023-03-05T04:10:50.162Z,20.55
2023-03-05T04:13:17.914Z,19.17
2023-03-05T04:15:45.457Z,17.40
2023-03-05T04:18:13.241Z,22.17
2023-03-05T04:20:41.077Z,27.90
2023-03-05T04:23:08.600Z,25.98
2023-03-05T04:25:36.377Z,22.50
2023-03-05T04:28:04.026Z,22.23
2023-03-05T04:30:31.875Z,21.73
2023-03-05T04:32:59.723Z,27.23
2023-03-05T04:35:27.289Z,31.35
2023-03-05T04:37:55.033Z,25.60
2023-03-05T04:40:23.016Z,19.95
2023-03-05T04:42:50.566Z,22.70
2023-03-05T04:45:18.277Z,20.07
2023-03-05T04:47:46.440Z,20.15
2023-03-05T04:50:14.679Z,20.70
2023-03-05T04:52:43.948Z,17.17
2023-03-05T04:55:13.719Z,17.98
2023-03-05T04:57:41.757Z,18.90
2023-03-05T05:00:14.295Z,17.45
2023-03-05T05:02:43.658Z,15.13
2023-03-05T05:05:17.363Z,16.65
2023-03-05T05:07:45.587Z,15.27
2023-03-05T05:10:14.194Z,15.50
2023-03-05T05:12:41.875Z,18.87
2023-03-05T05:15:10.261Z,27.52
2023-03-05T05:17:37.790Z,19.12
2023-03-05T05:20:06.793Z,20.98
2023-03-05T05:22:35.231Z,20.20
2023-03-05T05:25:03.273Z,18.83
2023-03-05T05:27:31.078Z,17.95
2023-03-05T05:29:59.299Z,17.83
2023-03-05T05:32:26.895Z,17.12
2023-03-05T05:34:58.500Z,15.13
2023-03-05T05:37:26.869Z,19.02
2023-03-05T05:39:54.583Z,16.50
2023-03-05T05:42:24.323Z,17.00
2023-03-05T05:44:52.142Z,18.23
2023-03-05T05:47:19.760Z,16.97
2023-03-05T05:49:47.586Z,16.30
2023-03-05T05:52:15.443Z,16.50
2023-03-05T05:54:42.968Z,16.25
2023-03-05T05:57:10.539Z,17.23
2023-03-05T05:59:38.510Z,24.40
2023-03-05T06:02:08.005Z,19.50
2023-03-05T06:04:36.304Z,18.45
2023-03-05T06:07:04.135Z,21.52
2023-03-05T06:09:31.660Z,18.33
2023-03-05T06:11:59.663Z,19.13
2023-03-05T06:14:27.138Z,19.08
2023-03-05T06:16:54.787Z,24.23
2023-03-05T06:19:22.638Z,26.55
2023-03-05T06:21:50.245Z,27.13
2023-03-05T06:24:19.427Z,21.33
2023-03-05T06:26:48.651Z,22.98
2023-03-05T06:29:16.550Z,24.48
2023-03-05T06:31:44.340Z,28.77
2023-03-05T06:34:12.121Z,28.12
2023-03-05T06:36:40.540Z,30.73
2023-03-05T06:39:08.269Z,30.90
2023-03-05T06:41:36.442Z,42.42
2023-03-05T06:44:04.184Z,18.62
2023-03-05T06:46:37.253Z,23.40
2023-03-05T06:49:05.353Z,25.93
2023-03-05T06:51:40.407Z,23.38
2023-03-05T06:54:13.440Z,18.35
2023-03-05T06:56:46.072Z,19.98
2023-03-05T06:59:15.710Z,18.10
2023-03-05T07:01:44.197Z,18.20
2023-03-05T07:04:13.426Z,15.68
2023-03-05T07:06:44.842Z,15.32
2023-03-05T07:09:15.222Z,16.90
2023-03-05T07:11:43.508Z,19.67
2023-03-05T07:14:11.195Z,21.67
2023-03-05T07:16:38.733Z,20.35
2023-03-05T07:19:08.074Z,17.02
2023-03-05T07:21:39.263Z,18.20
2023-03-05T07:24:09.169Z,15.40
2023-03-05T07:26:36.707Z,20.43
2023-03-05T07:29:04.407Z,22.27
2023-03-05T07:31:32.515Z,16.75
2023-03-05T07:34:01.335Z,16.87
2023-03-05T07:36:29.180Z,14.48
2023-03-05T07:38:57.046Z,15.43
2023-03-05T07:41:25.053Z,19.75
2023-03-05T07:43:54.224Z,18.77
2023-03-05T07:46:26.225Z,17.25
2023-03-05T07:48:57.122Z,15.77
2023-03-05T07:51:26.762Z,16.97
2023-03-05T07:53:57.451Z,15.18
2023-03-05T07:56:29.050Z,17.02
2023-03-05T07:58:56.563Z,15.85
2023-03-05T08:01:24.263Z,15.93
2023-03-05T08:03:52.481Z,15.33
2023-03-05T08:06:20.007Z,15.68
2023-03-05T08:08:48.191Z,14.70
2023-03-05T08:11:16.444Z,15.15
2023-03-05T08:13:44.646Z,16.52
2023-03-05T08:16:15.356Z,14.57
2023-03-05T08:18:43.707Z,15.52
2023-03-05T08:21:21.602Z,18.50
2023-03-05T08:23:49.635Z,16.92
2023-03-05T08:26:19.966Z,16.90
2023-03-05T08:28:48.064Z,17.07
2023-03-05T08:31:18.203Z,15.48
2023-03-05T08:33:45.770Z,20.37
2023-03-05T08:36:13.501Z,14.93
2023-03-05T08:38:42.059Z,13.77
2023-03-05T08:41:09.558Z,18.63
2023-03-05T08:43:37.376Z,13.57
2023-03-05T08:46:05.463Z,17.35
2023-03-05T08:48:33.533Z,16.42
2023-03-05T08:51:12.826Z,14.85
2023-03-05T08:53:43.578Z,14.43
2023-03-05T08:56:11.927Z,12.93
2023-03-05T08:58:40.101Z,15.60
2023-03-05T09:01:07.652Z,14.55
2023-03-05T09:03:35.372Z,15.60
2023-03-05T09:06:06.352Z,17.73
2023-03-05T09:08:34.765Z,13.55
2023-03-05T09:11:03.737Z,14.27
2023-03-05T09:13:31.707Z,13.00
2023-03-05T09:16:01.846Z,18.87
2023-03-05T09:18:29.974Z,17.10
2023-03-05T09:20:58.269Z,15.00
2023-03-05T09:23:25.922Z,17.48
2023-03-05T09:25:53.438Z,12.63
2023-03-05T09:28:21.653Z,16.35
2023-03-05T09:30:49.177Z,14.70
2023-03-05T09:33:17.020Z,10.80
2023-03-05T09:35:44.942Z,14.07
2023-03-05T09:38:12.516Z,13.80
2023-03-05T09:40:49.171Z,17.27
2023-03-05T09:43:48.001Z,15.37
2023-03-05T09:46:41.968Z,17.15
2023-03-05T09:49:18.847Z,14.90
2023-03-05T09:51:50.819Z,18.02
2023-03-05T09:54:57.354Z,17.70
2023-03-05T09:57:49.200Z,16.87
2023-03-05T10:00:36.639Z,14.93
2023-03-05T10:03:10.322Z,16.02
2023-03-05T10:05:53.115Z,14.38
2023-03-05T10:08:23.184Z,13.48
2023-03-05T10:10:54.409Z,15.00
2023-03-05T10:13:23.618Z,13.32
2023-03-05T10:16:06.366Z,13.65
2023-03-05T10:18:47.228Z,15.10
2023-03-05T10:21:23.816Z,13.13
2023-03-05T10:23:56.391Z,16.53
2023-03-05T10:26:30.295Z,18.10
2023-03-05T10:29:08.705Z,14.20
2023-03-05T10:32:11.835Z,14.07
2023-03-05T10:34:39.655Z,15.45
2023-03-05T10:37:47.210Z,13.83
2023-03-05T10:40:32.661Z,14.90
2023-03-05T10:43:22.036Z,13.70
2023-03-05T10:45:52.469Z,13.50
2023-03-05T10:48:39.473Z,17.45
2023-03-05T10:51:21.763Z,14.97
2023-03-05T10:53:57.238Z,13.68
2023-03-05T10:56:27.798Z,13.18
2023-03-05T10:58:55.442Z,14.65
2023-03-05T11:01:29.049Z,15.15
2023-03-05T11:03:59.383Z,17.17
2023-03-05T11:06:35.769Z,17.77
2023-03-05T11:09:20.575Z,15.88
2023-03-05T11:12:03.782Z,17.62
2023-03-05T11:14:33.545Z,18.55
2023-03-05T11:17:02.877Z,22.47
2023-03-05T11:19:33.276Z,15.18
2023-03-05T11:22:21.726Z,14.27
2023-03-05T11:25:14.214Z,12.98
2023-03-05T11:27:54.932Z,11.93
2023-03-05T11:30:29.302Z,13.70
2023-03-05T11:33:11.437Z,13.23
2023-03-05T11:35:42.072Z,13.77
2023-03-05T11:38:46.894Z,15.80
2023-03-05T11:41:14.862Z,14.35
2023-03-05T11:43:44.039Z,13.60
2023-03-05T11:46:12.812Z,13.95
2023-03-05T11:48:43.953Z,15.60
2023-03-05T11:51:33.943Z,12.88
2023-03-05T11:54:07.440Z,11.98
2023-03-05T11:56:37.815Z,11.40
2023-03-05T11:59:12.212Z,14.13
2023-03-05T12:01:50.464Z,14.45
2023-03-05T12:04:19.450Z,21.70
2023-03-05T12:06:49.969Z,13.27
2023-03-05T12:09:26.548Z,14.63
2023-03-05T12:12:07.319Z,9.75
2023-03-05T12:15:00.688Z,9.25
2023-03-05T12:17:33.053Z,10.55
2023-03-05T12:20:36.219Z,11.52
2023-03-05T12:23:04.261Z,10.00
2023-03-05T12:25:49.290Z,11.20
2023-03-05T12:28:36.983Z,10.10
2023-03-05T12:31:26.884Z,10.40
2023-03-05T12:33:54.752Z,12.32
2023-03-05T12:36:23.201Z,10.27
2023-03-05T12:38:53.613Z,10.40
2023-03-05T12:41:25.385Z,10.13
2023-03-05T12:44:06.012Z,18.12
2023-03-05T12:46:37.451Z,8.50
2023-03-05T12:49:20.471Z,9.77
2023-03-05T12:51:52.599Z,9.88
2023-03-05T12:54:29.165Z,9.68
2023-03-05T12:56:59.389Z,10.82
2023-03-05T12:59:35.139Z,11.70
2023-03-05T13:02:05.049Z,17.07
2023-03-05T13:04:34.135Z,30.25
2023-03-05T13:07:04.985Z,10.18
2023-03-05T13:09:36.394Z,10.95
2023-03-05T13:12:12.327Z,9.00
2023-03-05T13:14:47.813Z,14.93
2023-03-05T13:17:34.435Z,19.30
2023-03-05T13:20:22.782Z,16.00
2023-03-05T13:23:14.452Z,9.02
2023-03-05T13:25:43.624Z,10.77
2023-03-05T13:28:14.938Z,9.13
2023-03-05T13:30:51.917Z,9.32
2023-03-05T13:33:30.120Z,8.13
2023-03-05T13:35:58.539Z,9.13
2023-03-05T13:38:45.385Z,9.30
2023-03-05T13:41:24.865Z,7.57
2023-03-05T13:43:58.171Z,10.75
2023-03-05T13:46:38.693Z,10.18
2023-03-05T13:49:19.107Z,9.75
2023-03-05T13:51:56.667Z,10.27
2023-03-05T13:54:25.448Z,7.80
2023-03-05T13:57:02.630Z,8.77
2023-03-05T13:59:40.455Z,11.43
2023-03-05T14:02:17.119Z,11.25
2023-03-05T14:04:46.559Z,9.00
2023-03-05T14:07:20.201Z,10.03
2023-03-05T14:09:49.776Z,8.43
2023-03-05T14:12:37.158Z,10.90
2023-03-05T14:15:21.027Z,12.05
2023-03-05T14:17:49.037Z,18.27
2023-03-05T14:20:29.092Z,23.40
2023-03-05T14:22:59.636Z,16.50
2023-03-05T14:25:34.997Z,14.32
2023-03-05T14:28:16.801Z,9.55
2023-03-05T14:30:46.196Z,13.32
2023-03-05T14:33:14.701Z,10.77
2023-03-05T14:35:48.726Z,10.82
2023-03-05T14:38:24.124Z,11.82
2023-03-05T14:40:51.948Z,15.18
2023-03-05T14:43:20.213Z,13.27
2023-03-05T14:45:48.125Z,16.13
2023-03-05T14:48:18.781Z,12.93
2023-03-05T14:50:54.657Z,16.48
2023-03-05T14:53:26.867Z,19.12
2023-03-05T14:55:56.952Z,13.60
2023-03-05T14:58:27.558Z,11.90
2023-03-05T15:00:56.854Z,11.23
2023-03-05T15:03:25.203Z,11.02
2023-03-05T15:05:54.940Z,9.82
2023-03-05T15:08:28.597Z,12.23
2023-03-05T15:10:56.900Z,11.23
2023-03-05T15:13:25.374Z,9.65
2023-03-05T15:15:54.087Z,12.37
2023-03-05T15:18:22.807Z,14.25
2023-03-05T15:20:53.135Z,12.50
2023-03-05T15:23:20.925Z,12.63
2023-03-05T15:25:48.984Z,15.18
2023-03-05T15:28:17.241Z,11.35
2023-03-05T15:30:47.172Z,12.98
2023-03-05T15:33:17.366Z,12.95
2023-03-05T15:35:45.780Z,12.27
2023-03-05T15:38:13.767Z,10.75
2023-03-05T15:40:41.736Z,10.68
2023-03-05T15:43:10.435Z,12.77
2023-03-05T15:45:38.314Z,13.15
2023-03-05T15:48:06.792Z,12.30
2023-03-05T15:50:36.275Z,11.90
2023-03-05T15:53:04.146Z,11.95
2023-03-05T15:55:31.967Z,10.90
2023-03-05T15:58:00.110Z,10.50
2023-03-05T16:00:30.721Z,15.47
2023-03-05T16:02:59.065Z,21.70
2023-03-05T16:05:27.352Z,18.90
2023-03-05T16:07:55.962Z,14.48
2023-03-05T16:10:27.415Z,14.98
2023-03-05T16:13:08.582Z,12.13
2023-03-05T16:15:38.472Z,23.73
2023-03-05T16:18:08.355Z,16.33
2023-03-05T16:20:37.826Z,15.68
2023-03-05T16:23:06.688Z,18.08
2023-03-05T16:25:34.518Z,17.13
2023-03-05T16:28:03.165Z,16.77
2023-03-05T16:30:33.133Z,16.55
2023-03-05T16:33:01.440Z,16.30
2023-03-05T16:35:29.656Z,13.32
2023-03-05T16:37:58.391Z,14.87
2023-03-05T16:40:38.841Z,13.77
2023-03-05T16:43:15.320Z,10.93
2023-03-05T16:45:43.169Z,11.75
2023-03-05T16:48:10.984Z,11.90
2023-03-05T16:50:39.176Z,15.20
2023-03-05T16:53:08.089Z,16.73
2023-03-05T16:55:36.823Z,15.25
2023-03-05T16:58:05.513Z,17.42
2023-03-05T17:00:33.464Z,15.98
2023-03-05T17:03:01.317Z,20.63
2023-03-05T17:05:29.907Z,18.17
2023-03-05T17:07:57.684Z,17.52
2023-03-05T17:10:25.730Z,13.38
2023-03-05T17:12:54.497Z,16.17
2023-03-05T17:15:22.821Z,18.10
2023-03-05T17:17:50.489Z,17.30
2023-03-05T17:20:20.109Z,19.23
2023-03-05T17:22:48.018Z,57.38
2023-03-05T17:25:16.175Z,43.22
2023-03-05T17:27:43.914Z,23.30
2023-03-05T17:30:12.972Z,19.87
2023-03-05T17:32:41.781Z,21.75
2023-03-05T17:35:20.723Z,20.98
2023-03-05T17:37:49.888Z,19.33
2023-03-05T17:40:18.331Z,17.07
2023-03-05T17:42:45.891Z,18.33
2023-03-05T17:45:14.398Z,17.95
2023-03-05T17:47:42.698Z,17.92
2023-03-05T17:50:12.746Z,16.75
2023-03-05T17:52:41.793Z,16.07
2023-03-05T17:55:11.712Z,33.88
2023-03-05T17:57:41.768Z,42.92
2023-03-05T18:00:20.827Z,36.72
2023-03-05T18:02:50.052Z,61.78
2023-03-05T18:05:20.498Z,53.60
2023-03-05T18:07:48.694Z,53.90
2023-03-05T18:10:18.323Z,51.70
2023-03-05T18:12:46.964Z,47.45
2023-03-05T18:15:17.468Z,54.50
2023-03-05T18:17:45.341Z,58.23
2023-03-05T18:20:29.643Z,96.70
2023-03-05T18:22:59.149Z,132.50
2023-03-05T18:25:31.206Z,136.80
2023-03-05T18:28:01.260Z,185.88
2023-03-05T18:30:29.791Z,168.13
2023-03-05T18:32:57.718Z,125.57
2023-03-05T18:35:25.996Z,90.57
2023-03-05T18:37:55.561Z,70.80
2023-03-05T18:40:25.577Z,65.80
2023-03-05T18:42:54.158Z,53.70
2023-03-05T18:45:22.885Z,50.08
2023-03-05T18:47:54.174Z,50.63
2023-03-05T18:50:24.753Z,42.70
2023-03-05T18:52:52.770Z,50.15
2023-03-05T18:55:24.312Z,51.40
2023-03-05T18:57:53.007Z,49.42
2023-03-05T19:00:23.295Z,58.53
2023-03-05T19:02:51.217Z,62.92
2023-03-05T19:05:19.329Z,60.70
2023-03-05T19:07:47.667Z,56.53
2023-03-05T19:10:17.678Z,50.95
2023-03-05T19:13:18.685Z,47.40
2023-03-05T19:16:11.272Z,36.17
2023-03-05T19:19:20.156Z,31.40
2023-03-05T19:21:57.058Z,27.13
2023-03-05T19:24:29.839Z,27.58
2023-03-05T19:27:00.335Z,27.75
2023-03-05T19:29:34.330Z,27.73
2023-03-05T19:32:02.263Z,30.65
2023-03-05T19:34:31.364Z,24.80
2023-03-05T19:36:59.272Z,24.40
2023-03-05T19:39:27.214Z,19.75
2023-03-05T19:41:55.506Z,18.77
2023-03-05T19:44:23.338Z,18.70
2023-03-05T19:46:51.296Z,16.17
2023-03-05T19:49:19.990Z,17.00
2023-03-05T19:51:48.402Z,19.33
2023-03-05T19:54:19.780Z,19.42
2023-03-05T19:56:48.780Z,19.83
2023-03-05T19:59:18.926Z,17.97
2023-03-05T20:01:48.418Z,17.48
2023-03-05T20:04:19.398Z,13.45
2023-03-05T20:06:47.220Z,15.18
2023-03-05T20:09:16.732Z,17.45
2023-03-05T20:11:45.975Z,22.10
2023-03-05T20:14:14.635Z,18.25
2023-03-05T20:16:43.445Z,26.15
2023-03-05T20:19:16.437Z,39.78
2023-03-05T20:21:44.883Z,40.70
2023-03-05T20:24:15.454Z,28.03
2023-03-05T20:26:44.696Z,24.23
2023-03-05T20:29:16.127Z,17.75
2023-03-05T20:31:47.025Z,18.70
2023-03-05T20:34:17.094Z,14.65
2023-03-05T20:36:45.736Z,13.97
2023-03-05T20:39:13.720Z,13.57
2023-03-05T20:41:41.797Z,47.55
2023-03-05T20:44:11.484Z,26.80
2023-03-05T20:47:22.787Z,21.30
2023-03-05T20:49:56.089Z,18.33
2023-03-05T20:52:23.910Z,18.12
2023-03-05T20:54:52.066Z,23.30
2023-03-05T20:57:19.863Z,23.92
2023-03-05T20:59:47.698Z,18.58
2023-03-05T21:02:18.444Z,19.77
2023-03-05T21:04:46.383Z,33.25
2023-03-05T21:07:14.361Z,30.92
2023-03-05T21:09:42.621Z,26.55
2023-03-05T21:12:10.945Z,40.63
2023-03-05T21:14:40.633Z,40.57
2023-03-05T21:17:09.126Z,37.60
2023-03-05T21:19:38.100Z,45.63
2023-03-05T21:22:06.511Z,36.90
2023-03-05T21:25:15.761Z,31.27
2023-03-05T21:27:43.380Z,30.27
2023-03-05T21:30:12.242Z,33.55
2023-03-05T21:32:40.161Z,22.17
2023-03-05T21:35:08.185Z,21.80
2023-03-05T21:37:42.448Z,23.70
2023-03-05T21:40:15.723Z,18.73
2023-03-05T21:42:44.470Z,19.05
2023-03-05T21:45:15.878Z,18.70
2023-03-05T21:47:44.031Z,22.45
2023-03-05T21:50:13.530Z,19.20
2023-03-05T21:52:41.257Z,19.07
2023-03-05T21:55:13.838Z,19.35
2023-03-05T21:57:41.869Z,43.67
2023-03-05T22:00:11.197Z,46.95
2023-03-05T22:02:40.881Z,36.80
2023-03-05T22:05:12.902Z,26.40
2023-03-05T22:07:40.675Z,21.30
2023-03-05T22:10:15.115Z,19.25
2023-03-05T22:13:10.241Z,17.87
2023-03-05T22:15:57.869Z,19.80
2023-03-05T22:18:27.608Z,20.60
2023-03-05T22:20:56.388Z,24.58
2023-03-05T22:23:25.528Z,26.20
2023-03-05T22:25:57.804Z,36.47
2023-03-05T22:28:26.799Z,30.08
2023-03-05T22:30:54.458Z,17.30
2023-03-05T22:33:23.252Z,18.75
2023-03-05T22:35:51.337Z,18.25
2023-03-05T22:38:19.180Z,20.40
2023-03-05T22:40:48.678Z,20.50
2023-03-05T22:43:16.969Z,19.80
2023-03-05T22:45:45.169Z,21.00
2023-03-05T22:48:12.984Z,18.20
2023-03-05T22:50:42.278Z,20.00
2023-03-05T22:53:10.240Z,17.55
2023-03-05T22:55:40.107Z,17.10
2023-03-05T22:58:07.958Z,15.98
2023-03-05T23:00:35.819Z,15.93
2023-03-05T23:03:03.827Z,17.30
2023-03-05T23:05:31.772Z,16.75
2023-03-05T23:07:59.324Z,19.53
2023-03-05T23:10:28.846Z,25.33
2023-03-05T23:12:58.675Z,27.75
2023-03-05T23:15:31.029Z,30.30
2023-03-05T23:17:59.367Z,28.73
2023-03-05T23:20:30.778Z,27.17
2023-03-05T23:22:59.175Z,25.58
2023-03-05T23:25:29.866Z,27.55
2023-03-05T23:27:58.267Z,29.98
2023-03-05T23:30:26.829Z,26.05
2023-03-05T23:32:56.880Z,23.33
2023-03-05T23:35:36.335Z,21.08
2023-03-05T23:38:06.511Z,21.58
2023-03-05T23:40:43.210Z,21.95
2023-03-05T23:43:11.761Z,21.95
2023-03-05T23:45:44.362Z,21.93
2023-03-05T23:48:12.268Z,20.98
2023-03-05T23:50:42.280Z,23.20
2023-03-05T23:53:10.335Z,18.80
2023-03-05T23:55:43.113Z,22.05
2023-03-05T23:58:10.836Z,17.87
